createdAt,value
2022-10-01T00:01:19.718Z,91.24
2022-10-01T00:03:48.079Z,91.09
2022-10-01T00:06:21.527Z,89.18
2022-10-01T00:08:50.262Z,89.80
2022-10-01T00:11:23.774Z,89.31
2022-10-01T00:13:51.851Z,89.04
2022-10-01T00:16:23.242Z,88.80
2022-10-01T00:18:50.561Z,89.48
2022-10-01T00:21:24.032Z,89.64
2022-10-01T00:23:58.671Z,90.90
2022-10-01T00:26:34.765Z,91.01
2022-10-01T00:29:04.990Z,91.16
2022-10-01T00:31:32.908Z,90.51
2022-10-01T00:34:02.882Z,90.83
2022-10-01T00:36:30.982Z,91.29
2022-10-01T00:39:00.684Z,91.33
2022-10-01T00:41:33.958Z,90.60
2022-10-01T00:44:03.413Z,90.38
2022-10-01T00:46:40.790Z,90.44
2022-10-01T00:49:19.526Z,90.91
2022-10-01T00:52:10.948Z,91.39
2022-10-01T00:55:06.965Z,91.60
2022-10-01T00:57:34.784Z,91.96
2022-10-01T01:00:05.625Z,91.97
2022-10-01T01:02:32.557Z,91.74
2022-10-01T01:05:00.299Z,91.44
2022-10-01T01:07:29.181Z,91.24
2022-10-01T01:09:56.421Z,90.34
2022-10-01T01:12:57.271Z,90.07
2022-10-01T01:15:29.798Z,89.01
2022-10-01T01:18:19.517Z,88.43
2022-10-01T01:21:09.433Z,88.50
2022-10-01T01:23:57.797Z,88.14
2022-10-01T01:26:54.252Z,88.55
2022-10-01T01:29:32.618Z,88.34
2022-10-01T01:32:09.446Z,88.31
2022-10-01T01:34:43.621Z,88.16
2022-10-01T01:37:14.443Z,88.32
2022-10-01T01:39:46.455Z,88.59
2022-10-01T01:42:24.221Z,88.86
2022-10-01T01:44:54.977Z,88.68
2022-10-01T01:47:25.112Z,88.86
2022-10-01T01:49:53.401Z,88.81
2022-10-01T01:52:20.352Z,87.67
2022-10-01T01:54:50.383Z,86.16
2022-10-01T01:57:18.881Z,85.66
2022-10-01T01:59:46.384Z,84.48
2022-10-01T02:02:25.298Z,83.50
2022-10-01T02:05:02.292Z,82.16
2022-10-01T02:07:49.219Z,81.51
2022-10-01T02:10:34.657Z,81.11
2022-10-01T02:13:08.393Z,80.86
2022-10-01T02:16:04.631Z,80.34
2022-10-01T02:19:00.438Z,80.33
2022-10-01T02:21:40.398Z,79.55
2022-10-01T02:24:31.035Z,79.18
2022-10-01T02:27:01.682Z,79.17
2022-10-01T02:29:29.690Z,78.78
2022-10-01T02:31:57.582Z,78.59
2022-10-01T02:34:29.221Z,77.88
2022-10-01T02:36:59.479Z,77.79
2022-10-01T02:39:29.855Z,78.11
2022-10-01T02:41:59.235Z,77.72
2022-10-01T02:44:38.045Z,77.40
2022-10-01T02:47:08.004Z,77.57
2022-10-01T02:49:37.082Z,77.12
2022-10-01T02:52:10.108Z,76.46
2022-10-01T02:54:52.776Z,76.48
2022-10-01T02:57:29.088Z,76.77
2022-10-01T02:59:59.316Z,76.94
2022-10-01T03:02:28.771Z,77.87
2022-10-01T03:04:57.686Z,77.61
2022-10-01T03:07:26.301Z,78.32
2022-10-01T03:09:53.455Z,79.09
2022-10-01T03:12:20.492Z,79.68
2022-10-01T03:14:47.844Z,80.27
2022-10-01T03:17:16.004Z,80.50
2022-10-01T03:19:43.172Z,80.81
2022-10-01T03:22:18.360Z,81.17
2022-10-01T03:24:45.369Z,82.21
2022-10-01T03:27:12.187Z,82.27
2022-10-01T03:29:39.173Z,81.79
2022-10-01T03:32:06.156Z,81.79
2022-10-01T03:34:33.046Z,82.16
2022-10-01T03:36:59.894Z,82.32
2022-10-01T03:39:26.910Z,82.14
2022-10-01T03:41:53.739Z,80.94
2022-10-01T03:44:20.609Z,81.93
2022-10-01T03:46:47.532Z,81.03
2022-10-01T03:49:14.434Z,80.40
2022-10-01T03:51:41.553Z,80.97
2022-10-01T03:54:09.354Z,80.87
2022-10-01T03:56:36.333Z,80.23
2022-10-01T03:59:03.202Z,80.10
2022-10-01T04:01:31.169Z,80.83
2022-10-01T04:03:58.634Z,81.60
2022-10-01T04:06:25.471Z,82.72
2022-10-01T04:08:52.411Z,83.65
2022-10-01T04:11:19.212Z,84.13
2022-10-01T04:13:46.015Z,84.23
2022-10-01T04:16:13.176Z,83.65
2022-10-01T04:18:40.138Z,82.74
2022-10-01T04:21:06.986Z,82.62
2022-10-01T04:23:33.954Z,81.10
2022-10-01T04:26:02.501Z,80.46
2022-10-01T04:28:30.825Z,79.86
2022-10-01T04:31:16.785Z,79.89
2022-10-01T04:33:44.525Z,80.30
2022-10-01T04:36:11.662Z,80.22
2022-10-01T04:38:38.595Z,80.69
2022-10-01T04:41:05.761Z,80.49
2022-10-01T04:43:32.707Z,80.66
2022-10-01T04:45:59.575Z,80.77
2022-10-01T04:48:26.339Z,80.83
2022-10-01T04:50:53.522Z,80.81
2022-10-01T04:53:20.387Z,80.53
2022-10-01T04:55:47.155Z,80.20
2022-10-01T04:58:14.186Z,79.74
2022-10-01T05:00:41.459Z,79.65
2022-10-01T05:03:08.457Z,79.83
2022-10-01T05:05:35.373Z,79.77
2022-10-01T05:08:03.253Z,79.84
2022-10-01T05:10:30.206Z,79.48
2022-10-01T05:12:58.099Z,79.52
2022-10-01T05:15:25.017Z,80.25
2022-10-01T05:17:51.873Z,79.72
2022-10-01T05:20:21.541Z,79.31
2022-10-01T05:22:52.198Z,79.70
2022-10-01T05:25:19.793Z,80.45
2022-10-01T05:27:47.126Z,80.48
2022-10-01T05:30:20.204Z,80.76
2022-10-01T05:32:55.522Z,79.42
2022-10-01T05:35:22.383Z,79.30
2022-10-01T05:37:53.351Z,78.56
2022-10-01T05:40:20.194Z,78.13
2022-10-01T05:42:50.144Z,77.51
2022-10-01T05:45:17.315Z,77.44
2022-10-01T05:47:44.963Z,76.69
2022-10-01T05:50:11.845Z,76.84
2022-10-01T05:52:38.751Z,76.70
2022-10-01T05:55:05.838Z,76.82
2022-10-01T05:57:33.272Z,77.13
2022-10-01T06:00:00.202Z,77.57
2022-10-01T06:02:27.244Z,77.67
2022-10-01T06:04:54.174Z,78.88
2022-10-01T06:07:20.993Z,78.08
2022-10-01T06:09:47.919Z,78.35
2022-10-01T06:12:19.598Z,79.63
2022-10-01T06:14:46.679Z,79.43
2022-10-01T06:17:13.479Z,79.67
2022-10-01T06:19:40.231Z,79.71
2022-10-01T06:22:07.020Z,81.21
2022-10-01T06:24:34.119Z,80.84
2022-10-01T06:27:00.907Z,80.69
2022-10-01T06:29:27.677Z,80.89
2022-10-01T06:31:54.712Z,80.97
2022-10-01T06:34:21.685Z,81.08
2022-10-01T06:36:48.468Z,81.60
2022-10-01T06:39:15.357Z,81.25
2022-10-01T06:41:43.672Z,86.33
2022-10-01T06:44:10.892Z,87.71
2022-10-01T06:46:37.953Z,81.20
2022-10-01T06:49:04.747Z,81.37
2022-10-01T06:51:50.363Z,83.71
2022-10-01T06:54:18.495Z,87.05
2022-10-01T06:56:45.493Z,85.06
2022-10-01T06:59:12.543Z,81.33
2022-10-01T07:01:39.580Z,81.49
2022-10-01T07:04:06.801Z,81.75
2022-10-01T07:06:33.598Z,81.95
2022-10-01T07:09:00.539Z,82.34
2022-10-01T07:11:27.405Z,83.47
2022-10-01T07:13:57.767Z,85.67
2022-10-01T07:16:24.588Z,85.40
2022-10-01T07:18:52.351Z,83.60
2022-10-01T07:21:19.145Z,83.46
2022-10-01T07:23:45.896Z,81.43
2022-10-01T07:26:12.698Z,81.05
2022-10-01T07:28:39.571Z,81.39
2022-10-01T07:31:11.444Z,80.52
2022-10-01T07:33:39.440Z,80.16
2022-10-01T07:36:08.341Z,79.60
2022-10-01T07:38:35.664Z,79.31
2022-10-01T07:41:03.595Z,78.99
2022-10-01T07:43:33.181Z,78.88
2022-10-01T07:46:02.145Z,79.76
2022-10-01T07:48:29.041Z,79.68
2022-10-01T07:51:03.973Z,83.53
2022-10-01T07:53:31.170Z,84.51
2022-10-01T07:56:02.070Z,86.45
2022-10-01T07:58:31.534Z,85.13
2022-10-01T08:01:00.759Z,80.34
2022-10-01T08:03:27.782Z,78.14
2022-10-01T08:05:54.790Z,79.38
2022-10-01T08:08:21.624Z,76.69
2022-10-01T08:10:50.851Z,76.89
2022-10-01T08:13:18.244Z,77.03
2022-10-01T08:15:47.523Z,76.75
2022-10-01T08:18:14.706Z,77.20
2022-10-01T08:20:41.574Z,75.73
2022-10-01T08:23:14.344Z,76.47
2022-10-01T08:25:42.080Z,76.09
2022-10-01T08:28:11.126Z,76.32
2022-10-01T08:30:40.052Z,76.37
2022-10-01T08:33:08.024Z,76.33
2022-10-01T08:35:34.892Z,75.97
2022-10-01T08:38:03.523Z,76.39
2022-10-01T08:40:36.920Z,77.16
2022-10-01T08:43:08.770Z,77.66
2022-10-01T08:45:45.152Z,77.77
2022-10-01T08:48:56.898Z,77.40
2022-10-01T08:51:34.048Z,76.86
2022-10-01T08:54:17.274Z,76.63
2022-10-01T08:56:46.744Z,75.45
2022-10-01T08:59:47.291Z,76.04
2022-10-01T09:02:30.315Z,76.38
2022-10-01T09:05:01.750Z,75.96
2022-10-01T09:07:37.932Z,76.70
2022-10-01T09:10:26.849Z,76.11
2022-10-01T09:13:14.092Z,75.75
2022-10-01T09:15:52.091Z,75.75
2022-10-01T09:18:26.841Z,75.34
2022-10-01T09:20:59.062Z,74.71
2022-10-01T09:23:40.118Z,74.08
2022-10-01T09:26:12.444Z,72.56
2022-10-01T09:28:41.767Z,72.23
2022-10-01T09:31:25.018Z,71.97
2022-10-01T09:34:02.977Z,72.23
2022-10-01T09:36:58.816Z,71.34
2022-10-01T09:39:37.324Z,71.85
2022-10-01T09:42:04.501Z,71.58
2022-10-01T09:44:33.982Z,72.87
2022-10-01T09:47:00.895Z,75.45
2022-10-01T09:49:37.185Z,75.10
2022-10-01T09:52:28.803Z,75.38
2022-10-01T09:55:20.479Z,74.20
2022-10-01T09:58:18.584Z,75.69
2022-10-01T10:00:45.983Z,75.60
2022-10-01T10:03:28.988Z,76.35
2022-10-01T10:05:59.934Z,77.54
2022-10-01T10:08:28.523Z,77.71
2022-10-01T10:11:00.685Z,79.50
2022-10-01T10:13:35.409Z,78.39
2022-10-01T10:16:26.617Z,76.50
2022-10-01T10:19:02.482Z,78.04
2022-10-01T10:21:35.128Z,77.80
2022-10-01T10:24:07.483Z,77.65
2022-10-01T10:26:40.188Z,78.47
2022-10-01T10:29:24.797Z,77.66
2022-10-01T10:31:51.806Z,76.94
2022-10-01T10:34:27.942Z,77.04
2022-10-01T10:37:05.362Z,76.60
2022-10-01T10:39:36.549Z,76.24
2022-10-01T10:42:05.836Z,76.19
2022-10-01T10:44:39.121Z,76.37
2022-10-01T10:47:13.860Z,76.03
2022-10-01T10:49:52.260Z,75.63
2022-10-01T10:52:30.222Z,75.62
2022-10-01T10:54:59.403Z,74.99
2022-10-01T10:57:34.456Z,75.16
2022-10-01T11:00:13.666Z,74.40
2022-10-01T11:02:49.082Z,74.35
2022-10-01T11:05:20.903Z,74.46
2022-10-01T11:07:51.184Z,73.38
2022-10-01T11:10:47.287Z,72.83
2022-10-01T11:13:44.644Z,70.81
2022-10-01T11:16:36.224Z,71.22
2022-10-01T11:19:34.384Z,70.74
2022-10-01T11:22:16.381Z,71.34
2022-10-01T11:25:01.097Z,72.41
2022-10-01T11:27:42.792Z,71.61
2022-10-01T11:30:26.643Z,73.87
2022-10-01T11:33:00.884Z,72.35
2022-10-01T11:35:51.800Z,72.71
2022-10-01T11:38:24.758Z,71.31
2022-10-01T11:40:57.049Z,71.50
2022-10-01T11:43:31.943Z,70.70
2022-10-01T11:46:25.534Z,70.69
2022-10-01T11:49:02.603Z,70.24
2022-10-01T11:51:42.376Z,70.13
2022-10-01T11:54:15.936Z,70.20
2022-10-01T11:57:13.759Z,70.29
2022-10-01T12:00:08.605Z,70.04
2022-10-01T12:02:47.962Z,70.19
2022-10-01T12:05:22.185Z,70.62
2022-10-01T12:07:55.700Z,72.30
2022-10-01T12:10:38.999Z,72.67
2022-10-01T12:13:19.983Z,73.55
2022-10-01T12:15:56.392Z,74.20
2022-10-01T12:18:32.386Z,74.30
2022-10-01T12:21:07.893Z,74.27
2022-10-01T12:23:42.942Z,74.40
2022-10-01T12:26:47.326Z,74.35
2022-10-01T12:29:32.854Z,74.94
2022-10-01T12:32:25.595Z,75.17
2022-10-01T12:35:18.316Z,76.07
2022-10-01T12:38:00.663Z,75.96
2022-10-01T12:40:41.015Z,75.79
2022-10-01T12:43:35.973Z,75.59
2022-10-01T12:46:45.073Z,76.21
2022-10-01T12:49:41.046Z,77.04
2022-10-01T12:52:26.552Z,76.08
2022-10-01T12:55:14.083Z,76.63
2022-10-01T12:58:08.605Z,77.11
2022-10-01T13:00:43.123Z,77.25
2022-10-01T13:03:24.951Z,77.80
2022-10-01T13:06:10.907Z,77.79
2022-10-01T13:08:53.766Z,77.49
2022-10-01T13:11:20.860Z,78.24
2022-10-01T13:13:52.685Z,77.88
2022-10-01T13:16:35.040Z,78.09
2022-10-01T13:19:31.079Z,77.75
2022-10-01T13:22:14.918Z,77.26
2022-10-01T13:25:01.016Z,77.07
2022-10-01T13:27:44.306Z,78.06
2022-10-01T13:30:24.695Z,78.06
2022-10-01T13:32:53.587Z,77.67
2022-10-01T13:35:52.911Z,78.29
2022-10-01T13:38:38.014Z,78.40
2022-10-01T13:41:15.692Z,77.80
2022-10-01T13:43:52.701Z,77.40
2022-10-01T13:46:19.787Z,77.24
2022-10-01T13:48:50.657Z,77.06
2022-10-01T13:51:17.762Z,77.63
2022-10-01T13:53:45.088Z,77.70
2022-10-01T13:56:15.481Z,77.44
2022-10-01T13:58:45.071Z,78.72
2022-10-01T14:01:24.022Z,77.95
2022-10-01T14:03:57.592Z,77.85
2022-10-01T14:06:33.014Z,77.88
2022-10-01T14:09:25.101Z,77.14
2022-10-01T14:12:16.064Z,76.58
2022-10-01T14:15:13.636Z,75.95
2022-10-01T14:17:41.490Z,75.96
2022-10-01T14:20:09.090Z,75.19
2022-10-01T14:22:53.275Z,75.19
2022-10-01T14:25:53.650Z,75.85
2022-10-01T14:28:29.883Z,75.96
2022-10-01T14:31:12.274Z,75.99
2022-10-01T14:34:28.517Z,74.46
2022-10-01T14:36:56.278Z,72.47
2022-10-01T14:39:27.919Z,71.84
2022-10-01T14:41:56.656Z,72.02
2022-10-01T14:44:36.478Z,71.50
2022-10-01T14:47:14.091Z,71.81
2022-10-01T14:49:40.955Z,71.84
2022-10-01T14:52:18.487Z,73.38
2022-10-01T14:55:00.939Z,73.27
2022-10-01T14:57:36.255Z,73.81
2022-10-01T15:00:13.996Z,72.51
2022-10-01T15:02:49.681Z,73.34
2022-10-01T15:05:20.387Z,72.78
2022-10-01T15:07:47.516Z,72.54
2022-10-01T15:10:19.145Z,72.85
2022-10-01T15:12:49.671Z,73.18
2022-10-01T15:15:31.443Z,73.34
2022-10-01T15:17:58.541Z,74.08
2022-10-01T15:20:25.594Z,74.50
2022-10-01T15:23:00.434Z,74.48
2022-10-01T15:25:31.371Z,75.99
2022-10-01T15:27:58.328Z,76.14
2022-10-01T15:30:28.202Z,76.43
2022-10-01T15:32:55.386Z,77.84
2022-10-01T15:35:23.697Z,77.91
2022-10-01T15:37:51.948Z,77.75
2022-10-01T15:40:30.918Z,77.32
2022-10-01T15:43:26.362Z,77.49
2022-10-01T15:46:05.252Z,78.25
2022-10-01T15:48:33.612Z,79.14
2022-10-01T15:51:16.784Z,79.97
2022-10-01T15:53:44.462Z,80.70
2022-10-01T15:56:19.291Z,80.79
2022-10-01T15:58:53.227Z,81.54
2022-10-01T16:01:30.023Z,81.75
2022-10-01T16:04:01.662Z,81.63
2022-10-01T16:06:35.292Z,82.61
2022-10-01T16:09:16.027Z,82.37
2022-10-01T16:12:02.357Z,82.81
2022-10-01T16:14:41.040Z,82.94
2022-10-01T16:17:17.173Z,83.14
2022-10-01T16:19:49.482Z,83.55
2022-10-01T16:22:28.886Z,83.83
2022-10-01T16:24:57.768Z,83.38
2022-10-01T16:27:31.746Z,85.83
2022-10-01T16:30:12.366Z,87.81
2022-10-01T16:32:39.158Z,86.01
2022-10-01T16:35:15.393Z,84.58
2022-10-01T16:37:42.415Z,84.55
2022-10-01T16:40:13.903Z,84.17
2022-10-01T16:42:43.745Z,84.22
2022-10-01T16:45:19.344Z,84.64
2022-10-01T16:47:46.593Z,84.53
2022-10-01T16:50:16.104Z,84.44
2022-10-01T16:52:43.334Z,84.27
2022-10-01T16:55:32.602Z,84.54
2022-10-01T16:57:59.399Z,84.73
2022-10-01T17:00:28.030Z,84.82
2022-10-01T17:02:56.211Z,84.96
2022-10-01T17:05:25.943Z,84.41
2022-10-01T17:07:54.192Z,83.71
2022-10-01T17:10:23.627Z,85.31
2022-10-01T17:12:51.088Z,84.17
2022-10-01T17:15:27.094Z,84.77
2022-10-01T17:17:54.993Z,84.66
2022-10-01T17:20:23.344Z,84.71
2022-10-01T17:22:50.994Z,85.76
2022-10-01T17:25:21.489Z,85.21
2022-10-01T17:27:49.091Z,89.07
2022-10-01T17:30:16.877Z,85.78
2022-10-01T17:32:44.944Z,86.47
2022-10-01T17:35:13.983Z,85.50
2022-10-01T17:37:41.573Z,86.27
2022-10-01T17:40:09.830Z,86.56
2022-10-01T17:42:37.018Z,85.13
2022-10-01T17:45:06.823Z,89.36
2022-10-01T17:47:33.996Z,86.75
2022-10-01T17:50:01.295Z,84.05
2022-10-01T17:52:30.702Z,84.47
2022-10-01T17:54:57.474Z,84.98
2022-10-01T17:57:24.843Z,85.34
2022-10-01T17:59:51.994Z,84.32
2022-10-01T18:02:40.499Z,84.91
2022-10-01T18:05:09.553Z,84.49
2022-10-01T18:07:37.365Z,84.07
2022-10-01T18:10:06.387Z,84.47
2022-10-01T18:12:33.982Z,85.25
2022-10-01T18:15:01.773Z,85.27
2022-10-01T18:17:29.173Z,86.05
2022-10-01T18:19:57.299Z,89.44
2022-10-01T18:22:24.155Z,89.19
2022-10-01T18:24:51.024Z,90.02
2022-10-01T18:27:17.993Z,91.09
2022-10-01T18:29:44.853Z,89.92
2022-10-01T18:32:36.154Z,91.39
2022-10-01T18:35:06.284Z,90.76
2022-10-01T18:37:40.448Z,90.03
2022-10-01T18:40:13.472Z,89.41
2022-10-01T18:43:06.713Z,90.91
2022-10-01T18:45:52.287Z,91.29
2022-10-01T18:48:53.647Z,91.78
2022-10-01T18:51:54.506Z,92.10
2022-10-01T18:54:34.695Z,93.17
2022-10-01T18:57:04.661Z,92.14
2022-10-01T18:59:47.010Z,91.52
2022-10-01T19:02:52.324Z,91.18
2022-10-01T19:05:42.166Z,92.14
2022-10-01T19:08:33.222Z,93.23
2022-10-01T19:11:03.037Z,93.02
2022-10-01T19:13:35.002Z,92.29
2022-10-01T19:16:17.013Z,91.62
2022-10-01T19:18:51.882Z,92.54
2022-10-01T19:21:25.533Z,92.08
2022-10-01T19:24:14.429Z,95.76
2022-10-01T19:26:43.977Z,97.45
2022-10-01T19:29:49.386Z,97.45
2022-10-01T19:32:24.064Z,98.56
2022-10-01T19:35:02.986Z,100.00
2022-10-01T19:37:29.742Z,100.00
2022-10-01T19:40:07.349Z,100.00
2022-10-01T19:42:39.762Z,99.86
2022-10-01T19:45:37.700Z,100.00
2022-10-01T19:48:26.199Z,100.00
2022-10-01T19:51:00.235Z,99.05
2022-10-01T19:53:32.078Z,100.00
2022-10-01T19:56:01.336Z,100.00
2022-10-01T19:58:30.548Z,100.00
2022-10-01T20:01:01.960Z,100.00
2022-10-01T20:03:39.508Z,100.00
2022-10-01T20:06:20.725Z,100.00
2022-10-01T20:08:53.758Z,100.00
2022-10-01T20:11:39.046Z,100.00
2022-10-01T20:14:39.555Z,100.00
2022-10-01T20:17:19.326Z,100.00
2022-10-01T20:19:51.686Z,100.00
2022-10-01T20:22:30.589Z,100.00
2022-10-01T20:25:00.302Z,100.00
2022-10-01T20:28:02.433Z,100.00
2022-10-01T20:30:34.478Z,100.00
2022-10-01T20:33:10.401Z,100.00
2022-10-01T20:36:07.478Z,100.00
2022-10-01T20:38:40.124Z,100.00
2022-10-01T20:41:14.747Z,100.00
2022-10-01T20:43:51.575Z,100.00
2022-10-01T20:46:35.500Z,100.00
2022-10-01T20:49:27.401Z,100.00
2022-10-01T20:52:11.303Z,100.00
2022-10-01T20:54:46.338Z,100.00
2022-10-01T20:57:33.339Z,100.00
2022-10-01T21:00:17.123Z,100.00
2022-10-01T21:02:51.110Z,100.00
2022-10-01T21:05:28.033Z,100.00
2022-10-01T21:08:11.015Z,100.00
2022-10-01T21:10:49.265Z,100.00
2022-10-01T21:13:25.679Z,100.00
2022-10-01T21:16:05.751Z,100.00
2022-10-01T21:18:39.805Z,100.00
2022-10-01T21:21:33.918Z,100.00
2022-10-01T21:24:26.119Z,100.00
2022-10-01T21:27:01.624Z,100.00
2022-10-01T21:29:51.607Z,100.00
2022-10-01T21:32:31.442Z,100.00
2022-10-01T21:35:28.284Z,100.00
2022-10-01T21:38:17.609Z,100.00
2022-10-01T21:41:06.615Z,100.00
2022-10-01T21:43:42.122Z,99.97
2022-10-01T21:46:49.378Z,100.00
2022-10-01T21:49:22.325Z,100.00
2022-10-01T21:52:10.697Z,100.00
2022-10-01T21:54:46.416Z,100.00
2022-10-01T21:57:22.383Z,100.00
2022-10-01T21:59:58.351Z,100.00
2022-10-01T22:02:27.941Z,100.00
2022-10-01T22:05:09.744Z,100.00
2022-10-01T22:07:55.062Z,100.00
2022-10-01T22:10:36.698Z,100.00
2022-10-01T22:13:12.115Z,100.00
2022-10-01T22:15:43.349Z,100.00
2022-10-01T22:18:19.532Z,100.00
2022-10-01T22:20:48.002Z,100.00
2022-10-01T22:23:18.770Z,100.00
2022-10-01T22:25:57.878Z,100.00
2022-10-01T22:28:33.081Z,100.00
2022-10-01T22:31:03.331Z,100.00
2022-10-01T22:33:38.531Z,100.00
2022-10-01T22:36:22.192Z,100.00
2022-10-01T22:39:07.782Z,100.00
2022-10-01T22:41:41.416Z,100.00
2022-10-01T22:44:20.411Z,100.00
2022-10-01T22:46:49.914Z,100.00
2022-10-01T22:49:40.979Z,100.00
2022-10-01T22:52:34.181Z,100.00
2022-10-01T22:55:45.535Z,100.00
2022-10-01T22:58:45.353Z,100.00
2022-10-01T23:01:41.185Z,100.00
2022-10-01T23:04:41.242Z,100.00
2022-10-01T23:07:19.977Z,100.00
2022-10-01T23:10:13.483Z,100.00
2022-10-01T23:13:15.444Z,100.00
2022-10-01T23:16:13.098Z,100.00
2022-10-01T23:18:51.911Z,100.00
2022-10-01T23:21:32.823Z,100.00
2022-10-01T23:24:18.066Z,100.00
2022-10-01T23:27:22.072Z,100.00
2022-10-01T23:30:12.199Z,100.00
2022-10-01T23:33:01.256Z,100.00
2022-10-01T23:35:59.415Z,100.00
2022-10-01T23:38:29.892Z,100.00
2022-10-01T23:41:02.234Z,100.00
2022-10-01T23:43:41.551Z,100.00
2022-10-01T23:46:14.684Z,100.00
2022-10-01T23:48:48.601Z,100.00
2022-10-01T23:51:46.070Z,100.00
2022-10-01T23:54:36.932Z,100.00
2022-10-01T23:57:31.432Z,100.00
